sensor_id;sensor_type;location;lat;lon;timestamp;pressure;altitude;pressure_sealevel;temperature;humidity
43804;BME280;29430;52.924;-2.388;2023-02-25T00:01:48;99377.56;;;3.83;79.79
43804;BME280;29430;52.924;-2.388;2023-02-25T00:06:54;99371.63;;;3.73;80.23
43804;BME280;29430;52.924;-2.388;2023-02-25T00:11:46;99375.84;;;3.67;80.16
43804;BME280;29430;52.924;-2.388;2023-02-25T00:16:37;99380.28;;;3.60;79.85
43804;BME280;29430;52.924;-2.388;2023-02-25T00:21:29;99385.06;;;3.50;79.98
43804;BME280;29430;52.924;-2.388;2023-02-25T00:26:21;99377.81;;;3.35;80.60
43804;BME280;29430;52.924;-2.388;2023-02-25T00:31:19;99376.03;;;3.28;81.29
43804;BME280;29430;52.924;-2.388;2023-02-25T00:36:14;99378.56;;;3.21;81.80
43804;BME280;29430;52.924;-2.388;2023-02-25T00:41:10;99376.94;;;3.12;81.98
43804;BME280;29430;52.924;-2.388;2023-02-25T00:46:02;99381.38;;;3.04;82.14
43804;BME280;29430;52.924;-2.388;2023-02-25T00:50:54;99385.59;;;2.99;82.59
43804;BME280;29430;52.924;-2.388;2023-02-25T00:55:45;99380.94;;;2.93;82.92
43804;BME280;29430;52.924;-2.388;2023-02-25T01:00:37;99371.41;;;2.90;82.99
43804;BME280;29430;52.924;-2.388;2023-02-25T01:05:42;99389.66;;;2.86;83.47
43804;BME280;29430;52.924;-2.388;2023-02-25T01:10:34;99398.22;;;2.82;84.52
43804;BME280;29430;52.924;-2.388;2023-02-25T01:15:26;99373.31;;;2.81;84.71
43804;BME280;29430;52.924;-2.388;2023-02-25T01:20:20;99370.28;;;2.84;84.51
43804;BME280;29430;52.924;-2.388;2023-02-25T01:25:14;99385.84;;;2.81;84.45
43804;BME280;29430;52.924;-2.388;2023-02-25T01:30:08;99380.84;;;2.78;84.84
43804;BME280;29430;52.924;-2.388;2023-02-25T01:35:00;99383.38;;;2.71;84.83
43804;BME280;29430;52.924;-2.388;2023-02-25T01:39:53;99393.44;;;2.69;84.70
43804;BME280;29430;52.924;-2.388;2023-02-25T01:50:05;99388.28;;;2.59;84.94
43804;BME280;29430;52.924;-2.388;2023-02-25T01:54:58;99398.34;;;2.57;85.35
43804;BME280;29430;52.924;-2.388;2023-02-25T01:59:50;99396.66;;;2.56;85.46
43804;BME280;29430;52.924;-2.388;2023-02-25T02:04:44;99390.66;;;2.54;85.36
43804;BME280;29430;52.924;-2.388;2023-02-25T02:09:41;99393.50;;;2.53;84.98
43804;BME280;29430;52.924;-2.388;2023-02-25T02:14:46;99396.19;;;2.53;85.70
43804;BME280;29430;52.924;-2.388;2023-02-25T02:35:29;99403.63;;;2.34;84.50
43804;BME280;29430;52.924;-2.388;2023-02-25T02:40:38;99413.34;;;2.27;84.80
43804;BME280;29430;52.924;-2.388;2023-02-25T02:45:48;99401.31;;;2.23;85.23
43804;BME280;29430;52.924;-2.388;2023-02-25T02:50:45;99397.81;;;2.14;85.60
43804;BME280;29430;52.924;-2.388;2023-02-25T02:55:45;99396.66;;;2.17;85.98
43804;BME280;29430;52.924;-2.388;2023-02-25T03:00:42;99396.50;;;2.18;85.94
43804;BME280;29430;52.924;-2.388;2023-02-25T03:05:37;99402.31;;;2.22;86.18
43804;BME280;29430;52.924;-2.388;2023-02-25T03:10:31;99401.66;;;2.20;85.52
43804;BME280;29430;52.924;-2.388;2023-02-25T03:15:25;99394.50;;;2.12;85.54
43804;BME280;29430;52.924;-2.388;2023-02-25T03:20:26;99401.84;;;2.10;85.68
43804;BME280;29430;52.924;-2.388;2023-02-25T03:25:39;99396.66;;;2.08;85.46
43804;BME280;29430;52.924;-2.388;2023-02-25T03:30:45;99409.72;;;2.03;85.38
43804;BME280;29430;52.924;-2.388;2023-02-25T03:35:40;99411.38;;;1.96;85.51
43804;BME280;29430;52.924;-2.388;2023-02-25T03:40:33;99417.06;;;1.93;86.09
43804;BME280;29430;52.924;-2.388;2023-02-25T03:45:26;99407.91;;;1.87;86.10
43804;BME280;29430;52.924;-2.388;2023-02-25T03:50:22;99415.59;;;1.90;86.22
43804;BME280;29430;52.924;-2.388;2023-02-25T03:55:17;99412.41;;;1.95;86.42
43804;BME280;29430;52.924;-2.388;2023-02-25T04:00:18;99421.09;;;1.97;86.74
43804;BME280;29430;52.924;-2.388;2023-02-25T04:05:14;99438.50;;;2.01;86.59
43804;BME280;29430;52.924;-2.388;2023-02-25T04:10:08;99457.22;;;2.01;86.39
43804;BME280;29430;52.924;-2.388;2023-02-25T04:15:01;99453.50;;;2.02;87.21
43804;BME280;29430;52.924;-2.388;2023-02-25T04:19:53;99455.84;;;2.05;86.89
43804;BME280;29430;52.924;-2.388;2023-02-25T04:24:44;99456.88;;;2.04;86.79
43804;BME280;29430;52.924;-2.388;2023-02-25T04:29:36;99461.38;;;1.95;85.98
43804;BME280;29430;52.924;-2.388;2023-02-25T04:34:28;99457.19;;;1.93;86.03
43804;BME280;29430;52.924;-2.388;2023-02-25T04:39:19;99457.69;;;1.88;85.92
43804;BME280;29430;52.924;-2.388;2023-02-25T04:44:13;99476.91;;;1.84;86.50
43804;BME280;29430;52.924;-2.388;2023-02-25T04:49:08;99467.75;;;1.78;86.43
43804;BME280;29430;52.924;-2.388;2023-02-25T04:54:00;99465.91;;;1.78;86.38
43804;BME280;29430;52.924;-2.388;2023-02-25T04:58:51;99466.25;;;1.75;86.03
43804;BME280;29430;52.924;-2.388;2023-02-25T05:03:45;99457.56;;;1.73;86.06
43804;BME280;29430;52.924;-2.388;2023-02-25T05:08:47;99471.75;;;1.66;86.35
43804;BME280;29430;52.924;-2.388;2023-02-25T05:13:39;99464.56;;;1.58;85.85
43804;BME280;29430;52.924;-2.388;2023-02-25T05:18:34;99472.72;;;1.48;86.37
43804;BME280;29430;52.924;-2.388;2023-02-25T05:23:26;99480.72;;;1.40;86.55
43804;BME280;29430;52.924;-2.388;2023-02-25T05:28:18;99482.91;;;1.36;86.99
43804;BME280;29430;52.924;-2.388;2023-02-25T05:33:10;99479.88;;;1.31;87.43
43804;BME280;29430;52.924;-2.388;2023-02-25T05:38:04;99484.72;;;1.28;87.67
43804;BME280;29430;52.924;-2.388;2023-02-25T05:42:55;99494.91;;;1.24;87.93
43804;BME280;29430;52.924;-2.388;2023-02-25T05:47:47;99500.41;;;1.22;88.62
43804;BME280;29430;52.924;-2.388;2023-02-25T05:52:39;99498.88;;;1.20;87.99
43804;BME280;29430;52.924;-2.388;2023-02-25T05:57:31;99506.41;;;1.16;88.48
43804;BME280;29430;52.924;-2.388;2023-02-25T06:02:22;99507.38;;;1.15;89.04
43804;BME280;29430;52.924;-2.388;2023-02-25T06:07:14;99510.72;;;1.17;89.30
43804;BME280;29430;52.924;-2.388;2023-02-25T06:12:06;99516.75;;;1.19;89.43
43804;BME280;29430;52.924;-2.388;2023-02-25T06:16:58;99524.63;;;1.21;89.73
43804;BME280;29430;52.924;-2.388;2023-02-25T06:21:52;99524.78;;;1.19;90.21
43804;BME280;29430;52.924;-2.388;2023-02-25T06:26:45;99527.59;;;1.18;90.68
43804;BME280;29430;52.924;-2.388;2023-02-25T06:31:36;99529.97;;;1.21;90.86
43804;BME280;29430;52.924;-2.388;2023-02-25T06:36:28;99530.28;;;1.26;91.04
43804;BME280;29430;52.924;-2.388;2023-02-25T06:41:21;99530.28;;;1.26;90.55
43804;BME280;29430;52.924;-2.388;2023-02-25T06:46:13;99540.50;;;1.31;91.14
43804;BME280;29430;52.924;-2.388;2023-02-25T06:51:06;99551.53;;;1.36;91.00
43804;BME280;29430;52.924;-2.388;2023-02-25T06:56:00;99553.38;;;1.35;91.02
43804;BME280;29430;52.924;-2.388;2023-02-25T07:00:52;99544.03;;;1.39;90.69
43804;BME280;29430;52.924;-2.388;2023-02-25T07:05:44;99553.38;;;1.43;90.68
43804;BME280;29430;52.924;-2.388;2023-02-25T07:10:36;99549.56;;;1.46;90.36
43804;BME280;29430;52.924;-2.388;2023-02-25T07:15:31;99546.06;;;1.46;90.42
43804;BME280;29430;52.924;-2.388;2023-02-25T07:20:23;99555.06;;;1.45;90.06
43804;BME280;29430;52.924;-2.388;2023-02-25T07:25:16;99563.91;;;1.45;89.66
43804;BME280;29430;52.924;-2.388;2023-02-25T07:30:11;99576.63;;;1.43;89.48
43804;BME280;29430;52.924;-2.388;2023-02-25T07:35:07;99582.13;;;1.41;90.02
43804;BME280;29430;52.924;-2.388;2023-02-25T07:40:01;99577.44;;;1.43;89.86
43804;BME280;29430;52.924;-2.388;2023-02-25T07:44:53;99576.78;;;1.50;90.31
43804;BME280;29430;52.924;-2.388;2023-02-25T07:49:47;99590.19;;;1.58;89.96
43804;BME280;29430;52.924;-2.388;2023-02-25T07:54:39;99586.19;;;1.62;90.45
43804;BME280;29430;52.924;-2.388;2023-02-25T07:59:31;99591.72;;;1.69;89.65
43804;BME280;29430;52.924;-2.388;2023-02-25T08:04:25;99584.88;;;1.66;89.76
43804;BME280;29430;52.924;-2.388;2023-02-25T08:09:17;99608.09;;;1.74;90.28
43804;BME280;29430;52.924;-2.388;2023-02-25T08:14:10;99609.97;;;1.73;90.06
43804;BME280;29430;52.924;-2.388;2023-02-25T08:19:03;99611.13;;;1.79;90.28
43804;BME280;29430;52.924;-2.388;2023-02-25T08:23:55;99616.66;;;1.86;90.43
43804;BME280;29430;52.924;-2.388;2023-02-25T08:28:47;99625.38;;;1.96;90.46
43804;BME280;29430;52.924;-2.388;2023-02-25T08:33:42;99624.53;;;2.04;90.43
43804;BME280;29430;52.924;-2.388;2023-02-25T08:38:35;99624.75;;;2.10;89.37
43804;BME280;29430;52.924;-2.388;2023-02-25T08:43:28;99620.38;;;2.18;89.33
43804;BME280;29430;52.924;-2.388;2023-02-25T08:48:20;99624.72;;;2.27;89.56
43804;BME280;29430;52.924;-2.388;2023-02-25T08:53:12;99636.47;;;2.34;88.73
43804;BME280;29430;52.924;-2.388;2023-02-25T08:58:05;99625.25;;;2.39;88.68
43804;BME280;29430;52.924;-2.388;2023-02-25T09:02:59;99631.59;;;2.54;88.86
43804;BME280;29430;52.924;-2.388;2023-02-25T09:07:51;99629.75;;;2.71;89.03
43804;BME280;29430;52.924;-2.388;2023-02-25T09:12:43;99631.06;;;2.92;89.06
43804;BME280;29430;52.924;-2.388;2023-02-25T09:17:36;99635.22;;;3.11;88.12
43804;BME280;29430;52.924;-2.388;2023-02-25T09:22:28;99634.97;;;3.29;87.75
43804;BME280;29430;52.924;-2.388;2023-02-25T09:27:23;99617.97;;;3.53;86.78
43804;BME280;29430;52.924;-2.388;2023-02-25T09:32:17;99624.63;;;3.65;86.03
43804;BME280;29430;52.924;-2.388;2023-02-25T09:37:10;99633.47;;;3.74;84.42
43804;BME280;29430;52.924;-2.388;2023-02-25T09:42:09;99641.34;;;3.75;84.06
43804;BME280;29430;52.924;-2.388;2023-02-25T09:52:15;99641.28;;;3.84;83.20
43804;BME280;29430;52.924;-2.388;2023-02-25T09:57:12;99647.50;;;3.84;82.59
43804;BME280;29430;52.924;-2.388;2023-02-25T10:07:26;99650.16;;;3.92;83.88
43804;BME280;29430;52.924;-2.388;2023-02-25T10:12:44;99650.75;;;4.03;83.46
43804;BME280;29430;52.924;-2.388;2023-02-25T10:18:04;99649.41;;;4.30;83.16
43804;BME280;29430;52.924;-2.388;2023-02-25T10:23:16;99645.03;;;4.52;81.57
43804;BME280;29430;52.924;-2.388;2023-02-25T10:28:16;99651.28;;;5.06;80.18
43804;BME280;29430;52.924;-2.388;2023-02-25T10:33:20;99661.13;;;5.58;78.51
43804;BME280;29430;52.924;-2.388;2023-02-25T10:38:14;99662.56;;;6.27;76.11
43804;BME280;29430;52.924;-2.388;2023-02-25T10:43:19;99661.03;;;6.82;70.79
43804;BME280;29430;52.924;-2.388;2023-02-25T10:48:17;99662.78;;;7.25;67.73
43804;BME280;29430;52.924;-2.388;2023-02-25T10:53:17;99651.00;;;7.33;69.47
43804;BME280;29430;52.924;-2.388;2023-02-25T11:03:22;99652.53;;;7.91;66.79
43804;BME280;29430;52.924;-2.388;2023-02-25T11:13:27;99660.22;;;7.45;65.27
43804;BME280;29430;52.924;-2.388;2023-02-25T11:18:22;99673.00;;;7.30;66.10
43804;BME280;29430;52.924;-2.388;2023-02-25T11:23:21;99670.50;;;7.28;67.56
43804;BME280;29430;52.924;-2.388;2023-02-25T11:28:30;99660.91;;;7.26;66.23
43804;BME280;29430;52.924;-2.388;2023-02-25T11:33:24;99661.91;;;7.46;67.72
43804;BME280;29430;52.924;-2.388;2023-02-25T11:43:17;99662.50;;;7.42;65.19
43804;BME280;29430;52.924;-2.388;2023-02-25T11:48:18;99653.72;;;7.33;65.21
43804;BME280;29430;52.924;-2.388;2023-02-25T12:10:03;99649.81;;;7.84;63.82
43804;BME280;29430;52.924;-2.388;2023-02-25T12:25:34;99646.56;;;7.53;63.95
43804;BME280;29430;52.924;-2.388;2023-02-25T12:36:00;99648.44;;;7.53;65.54
43804;BME280;29430;52.924;-2.388;2023-02-25T12:41:23;99648.66;;;7.58;63.41
43804;BME280;29430;52.924;-2.388;2023-02-25T12:57:25;99642.47;;;6.94;64.04
43804;BME280;29430;52.924;-2.388;2023-02-25T13:13:03;99646.41;;;6.70;65.87
43804;BME280;29430;52.924;-2.388;2023-02-25T13:24:03;99642.06;;;6.69;64.67
43804;BME280;29430;52.924;-2.388;2023-02-25T13:29:12;99640.94;;;6.85;64.32
43804;BME280;29430;52.924;-2.388;2023-02-25T13:45:25;99629.13;;;6.86;61.18
43804;BME280;29430;52.924;-2.388;2023-02-25T13:55:23;99622.84;;;7.07;61.10
43804;BME280;29430;52.924;-2.388;2023-02-25T14:10:57;99630.25;;;6.98;60.36
43804;BME280;29430;52.924;-2.388;2023-02-25T14:42:13;99658.47;;;6.31;64.08
43804;BME280;29430;52.924;-2.388;2023-02-25T14:47:17;99662.47;;;6.35;63.83
43804;BME280;29430;52.924;-2.388;2023-02-25T15:03:02;99661.91;;;6.40;63.48
43804;BME280;29430;52.924;-2.388;2023-02-25T15:18:31;99674.91;;;6.58;62.88
43804;BME280;29430;52.924;-2.388;2023-02-25T15:23:48;99680.38;;;6.43;63.75
43804;BME280;29430;52.924;-2.388;2023-02-25T15:28:43;99688.09;;;6.31;63.84
43804;BME280;29430;52.924;-2.388;2023-02-25T15:33:40;99690.75;;;6.09;65.27
43804;BME280;29430;52.924;-2.388;2023-02-25T15:38:52;99685.03;;;5.98;65.73
43804;BME280;29430;52.924;-2.388;2023-02-25T15:43:46;99678.91;;;5.89;66.71
43804;BME280;29430;52.924;-2.388;2023-02-25T15:48:40;99682.59;;;5.88;65.95
43804;BME280;29430;52.924;-2.388;2023-02-25T15:53:38;99688.19;;;5.86;64.48
43804;BME280;29430;52.924;-2.388;2023-02-25T16:08:29;99691.72;;;5.72;65.39
43804;BME280;29430;52.924;-2.388;2023-02-25T16:13:28;99708.25;;;5.69;66.18
43804;BME280;29430;52.924;-2.388;2023-02-25T16:18:33;99699.06;;;5.63;66.68
43804;BME280;29430;52.924;-2.388;2023-02-25T16:23:25;99697.56;;;5.61;66.79
43804;BME280;29430;52.924;-2.388;2023-02-25T16:28:25;99714.25;;;5.56;67.33
43804;BME280;29430;52.924;-2.388;2023-02-25T16:43:45;99712.69;;;5.62;69.12
43804;BME280;29430;52.924;-2.388;2023-02-25T16:53:43;99720.88;;;5.53;70.17
43804;BME280;29430;52.924;-2.388;2023-02-25T16:58:35;99730.13;;;5.51;70.23
43804;BME280;29430;52.924;-2.388;2023-02-25T17:03:30;99730.69;;;5.46;70.47
43804;BME280;29430;52.924;-2.388;2023-02-25T17:08:23;99736.44;;;5.43;70.64
43804;BME280;29430;52.924;-2.388;2023-02-25T17:13:21;99749.13;;;5.34;71.20
43804;BME280;29430;52.924;-2.388;2023-02-25T17:18:23;99744.28;;;5.30;71.67
43804;BME280;29430;52.924;-2.388;2023-02-25T17:23:17;99737.44;;;5.27;71.87
43804;BME280;29430;52.924;-2.388;2023-02-25T17:28:21;99756.53;;;5.32;72.34
43804;BME280;29430;52.924;-2.388;2023-02-25T17:33:24;99763.09;;;5.30;71.42
43804;BME280;29430;52.924;-2.388;2023-02-25T17:38:20;99777.78;;;5.27;69.90
43804;BME280;29430;52.924;-2.388;2023-02-25T17:43:21;99782.97;;;5.29;69.39
43804;BME280;29430;52.924;-2.388;2023-02-25T17:48:25;99791.69;;;5.31;69.22
43804;BME280;29430;52.924;-2.388;2023-02-25T17:53:46;99803.28;;;5.31;69.15
43804;BME280;29430;52.924;-2.388;2023-02-25T17:58:36;99811.69;;;5.28;69.07
43804;BME280;29430;52.924;-2.388;2023-02-25T18:03:28;99820.16;;;5.25;69.12
43804;BME280;29430;52.924;-2.388;2023-02-25T18:08:49;99824.84;;;5.23;69.03
43804;BME280;29430;52.924;-2.388;2023-02-25T18:13:42;99840.69;;;5.18;69.28
43804;BME280;29430;52.924;-2.388;2023-02-25T18:18:33;99847.63;;;5.12;69.97
43804;BME280;29430;52.924;-2.388;2023-02-25T18:23:25;99854.88;;;5.12;70.11
43804;BME280;29430;52.924;-2.388;2023-02-25T18:28:21;99853.53;;;5.08;70.55
43804;BME280;29430;52.924;-2.388;2023-02-25T18:33:13;99863.34;;;5.00;71.43
43804;BME280;29430;52.924;-2.388;2023-02-25T18:38:06;99865.38;;;4.98;71.93
43804;BME280;29430;52.924;-2.388;2023-02-25T18:43:00;99871.94;;;4.96;71.81
43804;BME280;29430;52.924;-2.388;2023-02-25T18:47:52;99868.94;;;4.91;70.86
43804;BME280;29430;52.924;-2.388;2023-02-25T18:52:45;99872.84;;;4.88;70.62
43804;BME280;29430;52.924;-2.388;2023-02-25T18:57:37;99888.09;;;4.88;70.68
43804;BME280;29430;52.924;-2.388;2023-02-25T19:02:34;99891.81;;;4.87;70.69
43804;BME280;29430;52.924;-2.388;2023-02-25T19:07:30;99898.03;;;4.87;70.66
43804;BME280;29430;52.924;-2.388;2023-02-25T19:12:23;99891.47;;;4.90;70.85
43804;BME280;29430;52.924;-2.388;2023-02-25T19:17:15;99888.97;;;4.88;71.01
43804;BME280;29430;52.924;-2.388;2023-02-25T19:22:09;99894.69;;;4.85;71.55
43804;BME280;29430;52.924;-2.388;2023-02-25T19:27:01;99896.50;;;4.84;71.44
43804;BME280;29430;52.924;-2.388;2023-02-25T19:31:53;99904.75;;;4.83;71.54
43804;BME280;29430;52.924;-2.388;2023-02-25T19:36:44;99900.25;;;4.75;71.30
43804;BME280;29430;52.924;-2.388;2023-02-25T19:41:36;99907.00;;;4.71;71.99
43804;BME280;29430;52.924;-2.388;2023-02-25T19:46:29;99909.72;;;4.63;71.76
43804;BME280;29430;52.924;-2.388;2023-02-25T19:51:21;99916.31;;;4.52;71.97
43804;BME280;29430;52.924;-2.388;2023-02-25T19:56:12;99914.00;;;4.41;72.47
43804;BME280;29430;52.924;-2.388;2023-02-25T20:01:06;99922.09;;;4.33;72.56
43804;BME280;29430;52.924;-2.388;2023-02-25T20:06:06;99936.56;;;4.23;73.02
43804;BME280;29430;52.924;-2.388;2023-02-25T20:10:58;99939.91;;;4.17;73.24
43804;BME280;29430;52.924;-2.388;2023-02-25T20:15:50;99943.44;;;4.09;73.54
43804;BME280;29430;52.924;-2.388;2023-02-25T20:20:43;99950.66;;;4.01;73.77
43804;BME280;29430;52.924;-2.388;2023-02-25T20:25:35;99947.13;;;3.92;74.31
43804;BME280;29430;52.924;-2.388;2023-02-25T20:30:27;99961.91;;;3.88;74.43
43804;BME280;29430;52.924;-2.388;2023-02-25T20:35:20;99964.09;;;3.84;74.56
43804;BME280;29430;52.924;-2.388;2023-02-25T20:40:12;99977.81;;;3.81;74.94
43804;BME280;29430;52.924;-2.388;2023-02-25T20:45:04;99971.63;;;3.81;75.34
43804;BME280;29430;52.924;-2.388;2023-02-25T20:49:57;99979.53;;;3.82;76.05
43804;BME280;29430;52.924;-2.388;2023-02-25T20:54:49;99976.84;;;3.82;75.61
43804;BME280;29430;52.924;-2.388;2023-02-25T20:59:41;99995.28;;;3.85;75.50
43804;BME280;29430;52.924;-2.388;2023-02-25T21:04:33;100001.66;;;3.84;75.75
43804;BME280;29430;52.924;-2.388;2023-02-25T21:09:25;100005.19;;;3.85;75.40
43804;BME280;29430;52.924;-2.388;2023-02-25T21:14:16;100030.16;;;3.85;75.34
43804;BME280;29430;52.924;-2.388;2023-02-25T21:19:08;100040.56;;;3.80;75.89
43804;BME280;29430;52.924;-2.388;2023-02-25T21:24:00;100038.88;;;3.79;75.74
43804;BME280;29430;52.924;-2.388;2023-02-25T21:28:51;100035.53;;;3.77;75.80
43804;BME280;29430;52.924;-2.388;2023-02-25T21:33:43;100047.09;;;3.69;75.66
43804;BME280;29430;52.924;-2.388;2023-02-25T21:38:35;100047.91;;;3.62;76.23
43804;BME280;29430;52.924;-2.388;2023-02-25T21:43:27;100039.66;;;3.55;76.57
43804;BME280;29430;52.924;-2.388;2023-02-25T21:48:19;100041.34;;;3.56;76.67
43804;BME280;29430;52.924;-2.388;2023-02-25T21:53:11;100048.03;;;3.52;76.68
43804;BME280;29430;52.924;-2.388;2023-02-25T21:58:03;100047.69;;;3.47;77.37
43804;BME280;29430;52.924;-2.388;2023-02-25T22:02:55;100053.53;;;3.42;77.52
43804;BME280;29430;52.924;-2.388;2023-02-25T22:07:47;100049.19;;;3.41;77.90
43804;BME280;29430;52.924;-2.388;2023-02-25T22:12:38;100052.88;;;3.40;78.41
43804;BME280;29430;52.924;-2.388;2023-02-25T22:17:30;100051.84;;;3.41;78.28
43804;BME280;29430;52.924;-2.388;2023-02-25T22:22:22;100055.41;;;3.42;78.76
43804;BME280;29430;52.924;-2.388;2023-02-25T22:27:14;100060.94;;;3.40;78.54
43804;BME280;29430;52.924;-2.388;2023-02-25T22:32:05;100075.00;;;3.42;79.04
43804;BME280;29430;52.924;-2.388;2023-02-25T22:36:57;100074.34;;;3.40;79.08
43804;BME280;29430;52.924;-2.388;2023-02-25T22:41:49;100069.97;;;3.39;79.26
43804;BME280;29430;52.924;-2.388;2023-02-25T22:46:41;100078.84;;;3.39;79.50
43804;BME280;29430;52.924;-2.388;2023-02-25T22:51:44;100092.56;;;3.36;79.29
43804;BME280;29430;52.924;-2.388;2023-02-25T22:56:36;100084.34;;;3.30;79.67
43804;BME280;29430;52.924;-2.388;2023-02-25T23:01:28;100095.88;;;3.22;80.19
43804;BME280;29430;52.924;-2.388;2023-02-25T23:06:21;100098.19;;;3.17;79.81
43804;BME280;29430;52.924;-2.388;2023-02-25T23:11:32;100103.19;;;3.12;80.71
43804;BME280;29430;52.924;-2.388;2023-02-25T23:16:34;100104.13;;;3.02;80.93
43804;BME280;29430;52.924;-2.388;2023-02-25T23:21:27;100105.94;;;2.94;81.37
43804;BME280;29430;52.924;-2.388;2023-02-25T23:26:24;100105.56;;;2.89;81.16
43804;BME280;29430;52.924;-2.388;2023-02-25T23:31:22;100116.06;;;2.82;81.80
43804;BME280;29430;52.924;-2.388;2023-02-25T23:36:14;100116.69;;;2.76;82.42
43804;BME280;29430;52.924;-2.388;2023-02-25T23:41:07;100113.66;;;2.71;82.95
43804;BME280;29430;52.924;-2.388;2023-02-25T23:46:03;100119.09;;;2.61;83.71
43804;BME280;29430;52.924;-2.388;2023-02-25T23:50:56;100122.25;;;2.56;83.93
43804;BME280;29430;52.924;-2.388;2023-02-25T23:55:47;100137.31;;;2.57;84.14
